Time;durP1;ratioP1;P1;durP2;ratioP2;P2;SDS_P1;SDS_P2;PMS_P1;PMS_P2;Temp;Humidity;BMP_temperature;BMP_pressure;BME280_temperature;BME280_humidity;BME280_pressure;Samples;Min_cycle;Max_cycle;Signal;HPM_P1;HPM_P2
2022/04/03 00:01:30;;;;;;;4.55;2.38;;;22.40;36.60;;;;;;5023239;28;20501;-50
2022/04/03 00:03:56;;;;;;;4.65;2.10;;;22.30;36.60;;;;;;5025194;28;20036;-49
2022/04/03 00:06:22;;;;;;;4.90;2.55;;;22.30;37.30;;;;;;5024638;28;20589;-49
2022/04/03 00:08:48;;;;;;;4.40;2.60;;;22.30;36.60;;;;;;5025048;28;20026;-48
2022/04/03 00:11:14;;;;;;;4.75;2.20;;;22.30;36.70;;;;;;5024727;28;20064;-50
2022/04/03 00:13:40;;;;;;;5.47;2.60;;;22.30;36.70;;;;;;5024636;28;20025;-50
2022/04/03 00:16:06;;;;;;;5.38;2.60;;;22.30;36.70;;;;;;5024991;28;20030;-49
2022/04/03 00:18:32;;;;;;;4.35;2.30;;;22.30;36.70;;;;;;5024041;28;20034;-51
2022/04/03 00:20:59;;;;;;;4.68;2.35;;;22.30;36.70;;;;;;5024028;28;20095;-48
2022/04/03 00:23:25;;;;;;;4.88;2.42;;;22.30;36.80;;;;;;5023968;28;20032;-48
2022/04/03 00:25:51;;;;;;;5.10;2.47;;;22.20;36.60;;;;;;5024814;28;20461;-49
2022/04/03 00:28:20;;;;;;;3.65;1.85;;;22.30;36.70;;;;;;5024218;28;20083;-50
2022/04/03 00:30:46;;;;;;;5.38;2.65;;;22.20;36.60;;;;;;5024089;28;20109;-50
2022/04/03 00:33:12;;;;;;;5.43;1.88;;;22.20;36.60;;;;;;5024917;28;20104;-49
2022/04/03 00:35:39;;;;;;;4.93;2.45;;;22.20;36.60;;;;;;5024812;28;20034;-50
2022/04/03 00:38:05;;;;;;;4.85;2.08;;;22.20;36.60;;;;;;5024942;28;20029;-49
2022/04/03 00:40:30;;;;;;;4.18;1.90;;;22.30;36.60;;;;;;5024575;28;20057;-49
2022/04/03 00:42:56;;;;;;;3.38;1.80;;;22.20;36.60;;;;;;5024369;28;20072;-50
2022/04/03 00:45:22;;;;;;;3.10;1.80;;;22.20;36.60;;;;;;5024943;28;20029;-49
2022/04/03 00:47:53;;;;;;;4.28;1.80;;;22.20;36.60;;;;;;5024494;28;20253;-48
2022/04/03 00:50:20;;;;;;;4.80;2.58;;;22.20;36.60;;;;;;5024428;28;20028;-50
2022/04/03 00:52:46;;;;;;;3.88;2.20;;;22.30;36.60;;;;;;5024487;28;20041;-49
2022/04/03 00:55:12;;;;;;;4.35;2.03;;;22.20;36.50;;;;;;5006846;28;20037;-49
2022/04/03 00:57:40;;;;;;;4.70;2.40;;;22.20;36.60;;;;;;5024491;28;20105;-49
2022/04/03 01:00:06;;;;;;;4.10;2.22;;;22.20;36.60;;;;;;5024291;28;20430;-49
2022/04/03 01:02:32;;;;;;;3.53;1.92;;;22.20;36.50;;;;;;5024283;28;20583;-47
2022/04/03 01:04:57;;;;;;;4.30;2.10;;;22.20;36.50;;;;;;5024492;28;20034;-49
2022/04/03 01:07:24;;;;;;;4.72;2.22;;;22.20;36.50;;;;;;5024544;28;20029;-49
2022/04/03 01:09:49;;;;;;;6.07;2.50;;;22.10;36.50;;;;;;5023734;28;20109;-50
2022/04/03 01:12:15;;;;;;;4.85;2.30;;;22.20;36.60;;;;;;5025692;28;20035;-49
2022/04/03 01:14:43;;;;;;;3.28;1.95;;;22.10;36.50;;;;;;5027886;28;20028;-49
2022/04/03 01:17:13;;;;;;;5.10;2.20;;;22.10;36.40;;;;;;5027684;28;20040;-51
2022/04/03 01:19:40;;;;;;;3.45;2.00;;;22.10;36.40;;;;;;5028064;28;20104;-49
2022/04/03 01:22:07;;;;;;;4.10;1.98;;;22.10;36.40;;;;;;5027779;28;20251;-49
2022/04/03 01:24:33;;;;;;;3.65;1.92;;;22.10;36.40;;;;;;5027734;28;20029;-50
2022/04/03 01:26:59;;;;;;;4.07;1.70;;;22.10;36.40;;;;;;5027391;28;20114;-49
2022/04/03 01:29:25;;;;;;;4.30;1.88;;;22.10;36.40;;;;;;5028151;28;20497;-49
2022/04/03 01:31:51;;;;;;;3.33;1.70;;;22.10;36.40;;;;;;5027583;28;20406;-49
2022/04/03 01:34:18;;;;;;;5.05;2.35;;;22.10;36.40;;;;;;5028042;28;20280;-48
2022/04/03 01:36:45;;;;;;;3.80;1.85;;;22.10;36.40;;;;;;5027869;28;20450;-49
2022/04/03 01:39:12;;;;;;;3.05;1.58;;;22.10;36.40;;;;;;5027783;28;20240;-49
2022/04/03 01:41:38;;;;;;;4.13;1.92;;;22.10;36.40;;;;;;5027150;28;20472;-49
2022/04/03 01:44:06;;;;;;;3.55;1.80;;;22.10;36.40;;;;;;5027226;28;20072;-49
2022/04/03 01:46:32;;;;;;;3.05;1.70;;;22.10;36.40;;;;;;5009509;28;20590;-48
2022/04/03 01:48:58;;;;;;;3.05;1.73;;;22.10;36.40;;;;;;5027472;28;20032;-49
2022/04/03 01:51:23;;;;;;;3.17;1.73;;;22.00;36.30;;;;;;5027943;28;20029;-48
2022/04/03 01:53:51;;;;;;;3.30;1.60;;;22.00;36.30;;;;;;5027910;28;20140;-50
2022/04/03 01:56:17;;;;;;;3.53;1.63;;;22.00;36.30;;;;;;5027433;28;20029;-48
2022/04/03 01:58:43;;;;;;;4.00;2.15;;;22.00;36.30;;;;;;5027573;28;20033;-48
2022/04/03 02:01:08;;;;;;;3.53;1.80;;;22.00;36.20;;;;;;5026417;28;20124;-50
2022/04/03 02:03:34;;;;;;;3.90;2.00;;;22.00;36.20;;;;;;5026692;28;20084;-48
2022/04/03 02:06:00;;;;;;;4.45;2.05;;;22.00;36.20;;;;;;5027350;28;20049;-48
2022/04/03 02:08:27;;;;;;;3.67;1.80;;;22.00;36.30;;;;;;5027295;28;20053;-50
2022/04/03 02:10:53;;;;;;;3.25;1.58;;;22.00;36.20;;;;;;5008707;28;20503;-48
2022/04/03 02:13:19;;;;;;;3.55;1.80;;;22.00;36.20;;;;;;5027052;28;20037;-49
2022/04/03 02:15:45;;;;;;;3.10;1.73;;;22.00;36.20;;;;;;5027122;28;20056;-49
2022/04/03 02:18:10;;;;;;;2.97;1.48;;;22.00;36.20;;;;;;5027117;28;20029;-50
2022/04/03 02:20:37;;;;;;;4.13;1.92;;;22.00;36.20;;;;;;5009455;28;20033;-49
2022/04/03 02:23:04;;;;;;;3.92;1.83;;;22.00;36.20;;;;;;5026340;28;20033;-49
2022/04/03 02:25:30;;;;;;;3.35;1.67;;;21.90;36.10;;;;;;5026221;28;20035;-50
2022/04/03 02:27:56;;;;;;;2.50;1.65;;;22.00;36.20;;;;;;5008741;28;20038;-49
2022/04/03 02:30:21;;;;;;;3.17;1.77;;;21.90;36.10;;;;;;5026942;28;20531;-49
2022/04/03 02:32:47;;;;;;;4.18;2.13;;;21.90;36.10;;;;;;5026605;28;20026;-49
2022/04/03 02:35:14;;;;;;;3.60;1.77;;;21.90;36.10;;;;;;5026885;28;20033;-49
2022/04/03 02:37:41;;;;;;;3.33;1.63;;;21.90;36.10;;;;;;5026763;28;20390;-50
2022/04/03 02:40:10;;;;;;;3.53;1.95;;;21.90;36.10;;;;;;5026046;28;20593;-48
2022/04/03 02:42:36;;;;;;;2.67;1.30;;;21.90;36.10;;;;;;5026334;28;20037;-48
2022/04/03 02:45:04;;;;;;;2.30;1.45;;;21.90;36.10;;;;;;5026461;28;20068;-48
2022/04/03 02:47:30;;;;;;;3.50;1.88;;;21.90;36.10;;;;;;5026735;28;20214;-49
2022/04/03 02:49:55;;;;;;;3.38;1.80;;;21.90;36.20;;;;;;5025949;28;20557;-48
2022/04/03 02:52:21;;;;;;;3.55;1.77;;;21.90;36.20;;;;;;5026117;28;20041;-49
2022/04/03 02:54:47;;;;;;;4.00;1.90;;;21.90;36.20;;;;;;5025930;28;20100;-49
2022/04/03 02:57:15;;;;;;;3.08;1.63;;;21.90;36.20;;;;;;5011463;28;20033;-49
2022/04/03 02:59:41;;;;;;;3.08;1.48;;;21.90;36.20;;;;;;5026185;28;20482;-49
2022/04/03 03:02:07;;;;;;;3.90;1.50;;;21.90;36.30;;;;;;5025829;28;20026;-48
2022/04/03 03:04:36;;;;;;;3.17;1.77;;;21.90;36.20;;;;;;5026445;28;20528;-49
2022/04/03 03:07:03;;;;;;;3.17;1.30;;;21.90;36.20;;;;;;5025297;28;20051;-49
2022/04/03 03:09:29;;;;;;;2.53;1.45;;;21.90;36.20;;;;;;5023844;28;20030;-50
2022/04/03 03:11:55;;;;;;;3.13;1.63;;;21.90;36.20;;;;;;5025814;28;20033;-50
2022/04/03 03:14:21;;;;;;;3.30;1.42;;;21.80;36.10;;;;;;5008441;28;20121;-49
2022/04/03 03:16:48;;;;;;;3.45;1.88;;;21.80;36.10;;;;;;5025960;28;20087;-49
2022/04/03 03:19:15;;;;;;;2.97;1.38;;;21.80;36.10;;;;;;5008140;28;20048;-50
2022/04/03 03:21:41;;;;;;;3.63;1.38;;;21.80;36.10;;;;;;5026240;28;20038;-48
2022/04/03 03:24:07;;;;;;;3.20;1.60;;;21.80;36.10;;;;;;5025695;28;20140;-49
2022/04/03 03:26:33;;;;;;;3.08;1.73;;;21.80;36.10;;;;;;5025656;28;20546;-48
2022/04/03 03:28:58;;;;;;;3.40;1.60;;;21.80;36.10;;;;;;5025463;28;20022;-50
2022/04/03 03:31:24;;;;;;;2.60;1.63;;;21.80;36.10;;;;;;5025814;28;20029;-49
2022/04/03 03:33:50;;;;;;;4.10;1.60;;;21.80;36.10;;;;;;5025565;28;20033;-48
2022/04/03 03:36:16;;;;;;;2.70;1.40;;;21.80;36.10;;;;;;5025647;28;20029;-48
2022/04/03 03:38:42;;;;;;;2.63;1.40;;;21.80;36.10;;;;;;5025334;28;20081;-49
2022/04/03 03:41:09;;;;;;;3.03;1.42;;;21.80;36.10;;;;;;5007679;28;20526;-50
2022/04/03 03:43:35;;;;;;;2.88;1.50;;;21.80;36.00;;;;;;5025656;28;20638;-50
2022/04/03 03:46:02;;;;;;;2.15;0.98;;;21.80;36.10;;;;;;5007054;28;20435;-49
2022/04/03 03:48:27;;;;;;;3.00;1.70;;;21.80;36.00;;;;;;5025664;28;20126;-49
2022/04/03 03:50:53;;;;;;;2.97;1.50;;;21.80;36.00;;;;;;5025672;28;20030;-50
2022/04/03 03:53:20;;;;;;;2.72;1.35;;;21.80;36.00;;;;;;5025051;28;20080;-49
2022/04/03 03:55:45;;;;;;;2.22;1.20;;;21.80;36.00;;;;;;5025337;28;20025;-49
2022/04/03 03:58:11;;;;;;;3.00;1.60;;;21.70;36.00;;;;;;5024374;28;20036;-49
2022/04/03 04:00:37;;;;;;;2.97;1.42;;;21.70;35.90;;;;;;5024201;28;20034;-50
2022/04/03 04:03:04;;;;;;;2.80;1.38;;;21.70;35.90;;;;;;5024838;28;20036;-50
2022/04/03 04:05:29;;;;;;;2.38;1.27;;;21.70;35.90;;;;;;5024836;28;20499;-49
2022/04/03 04:07:55;;;;;;;2.40;1.23;;;21.70;35.90;;;;;;5007201;28;20068;-49
2022/04/03 04:10:21;;;;;;;3.75;1.40;;;21.70;35.90;;;;;;5024043;28;20037;-50
2022/04/03 04:12:47;;;;;;;2.70;1.20;;;21.70;36.00;;;;;;5024411;28;20063;-49
2022/04/03 04:15:14;;;;;;;2.97;1.50;;;21.70;35.90;;;;;;5024757;28;20172;-50
2022/04/03 04:17:42;;;;;;;3.80;1.80;;;21.70;35.90;;;;;;5024426;28;20112;-49
2022/04/03 04:20:12;;;;;;;2.53;1.35;;;21.70;35.90;;;;;;5024787;28;20108;-48
2022/04/03 04:22:43;;;;;;;4.40;1.52;;;21.70;35.90;;;;;;5024196;28;20040;-49
2022/04/03 04:25:11;;;;;;;3.28;1.50;;;21.70;35.90;;;;;;5024261;28;20025;-50
2022/04/03 04:27:37;;;;;;;3.50;1.50;;;21.70;35.90;;;;;;5006803;28;20385;-49
2022/04/03 04:30:04;;;;;;;2.80;1.38;;;21.60;35.80;;;;;;5024282;28;20041;-48
2022/04/03 04:32:30;;;;;;;2.70;1.30;;;21.70;35.90;;;;;;5006732;28;20017;-50
2022/04/03 04:34:56;;;;;;;2.90;1.50;;;21.60;35.70;;;;;;5024713;28;20037;-49
2022/04/03 04:37:22;;;;;;;2.92;1.40;;;21.60;35.80;;;;;;5024525;28;20734;-49
2022/04/03 04:39:48;;;;;;;3.20;1.60;;;21.60;35.70;;;;;;5024654;28;20728;-49
2022/04/03 04:42:13;;;;;;;3.25;1.65;;;21.60;35.70;;;;;;5024877;28;20097;-50
2022/04/03 04:44:40;;;;;;;2.65;1.33;;;21.60;35.70;;;;;;5024184;28;20033;-49
2022/04/03 04:47:06;;;;;;;2.38;1.23;;;21.60;35.70;;;;;;5008229;28;20032;-49
2022/04/03 04:49:32;;;;;;;2.75;1.48;;;21.60;35.70;;;;;;5027664;28;20033;-50
2022/04/03 04:51:58;;;;;;;2.92;1.38;;;21.60;35.70;;;;;;5010914;28;20466;-48
2022/04/03 04:54:26;;;;;;;2.47;1.20;;;21.60;35.70;;;;;;5010612;28;20069;-49
2022/04/03 04:56:52;;;;;;;2.28;1.15;;;21.60;35.80;;;;;;5028376;28;20216;-50
2022/04/03 04:59:18;;;;;;;3.78;1.50;;;21.60;35.70;;;;;;5010325;28;20476;-48
2022/04/03 05:01:44;;;;;;;2.72;1.38;;;21.60;35.70;;;;;;5027838;28;20034;-49
2022/04/03 05:04:09;;;;;;;2.92;1.30;;;21.60;35.70;;;;;;5027796;28;20030;-49
2022/04/03 05:06:36;;;;;;;2.60;1.27;;;21.60;35.70;;;;;;5028056;28;20275;-49
2022/04/03 05:09:06;;;;;;;2.28;1.23;;;21.60;35.70;;;;;;5010296;28;20230;-50
2022/04/03 05:11:32;;;;;;;2.97;1.33;;;21.60;35.70;;;;;;5010109;28;20113;-50
2022/04/03 05:13:58;;;;;;;2.50;1.15;;;21.60;35.70;;;;;;5028138;28;20529;-50
2022/04/03 05:16:24;;;;;;;3.05;1.33;;;21.60;35.70;;;;;;5028292;28;20060;-49
2022/04/03 05:18:52;;;;;;;2.35;1.25;;;21.50;35.70;;;;;;5027425;28;20033;-48
2022/04/03 05:21:17;;;;;;;2.60;1.20;;;21.50;36.10;;;;;;5027808;28;20025;-49
2022/04/03 05:23:43;;;;;;;3.55;1.65;;;21.50;35.70;;;;;;5009412;28;20305;-49
2022/04/03 05:26:10;;;;;;;2.55;1.15;;;21.50;35.80;;;;;;5026898;28;20087;-49
2022/04/03 05:28:36;;;;;;;2.75;1.27;;;21.60;35.80;;;;;;5026916;28;20029;-50
2022/04/03 05:31:03;;;;;;;2.72;1.38;;;21.50;35.80;;;;;;5026797;28;20384;-50
2022/04/03 05:33:29;;;;;;;2.67;1.10;;;21.60;35.80;;;;;;5027314;28;20021;-49
2022/04/03 05:35:54;;;;;;;3.35;1.10;;;21.50;35.80;;;;;;5026902;28;20037;-49
2022/04/03 05:38:20;;;;;;;2.63;1.13;;;21.60;35.80;;;;;;5009015;28;20029;-49
2022/04/03 05:43:21;;;;;;;2.90;1.27;;;21.60;35.90;;;;;;5127784;22;19925;-52
2022/04/03 05:45:47;;;;;;;1.67;0.88;;;21.50;35.80;;;;;;5025543;28;20044;-52
2022/04/03 05:48:13;;;;;;;1.98;1.13;;;21.60;35.80;;;;;;5027393;28;20076;-51
2022/04/03 05:50:39;;;;;;;3.85;1.30;;;21.60;35.70;;;;;;5026090;28;20021;-51
2022/04/03 05:53:05;;;;;;;2.70;1.30;;;21.60;35.80;;;;;;5026357;28;20033;-51
2022/04/03 05:55:31;;;;;;;2.85;1.33;;;21.70;35.90;;;;;;5024944;28;20108;-51
2022/04/03 05:57:56;;;;;;;2.17;0.98;;;21.70;35.90;;;;;;5025672;28;20099;-50
2022/04/03 06:00:24;;;;;;;2.42;1.30;;;21.80;36.00;;;;;;5026507;28;20444;-50
2022/04/03 06:02:58;;;;;;;2.10;1.00;;;21.80;35.90;;;;;;5026647;28;20080;-51
2022/04/03 06:05:29;;;;;;;2.65;1.30;;;21.80;35.90;;;;;;5026614;28;20452;-51
2022/04/03 06:07:55;;;;;;;2.53;1.08;;;21.90;36.00;;;;;;5026462;28;20381;-50
2022/04/03 06:10:22;;;;;;;2.30;0.95;;;22.00;35.90;;;;;;5025271;28;20116;-51
2022/04/03 06:12:52;;;;;;;2.50;1.02;;;22.00;35.90;;;;;;5025355;28;20439;-51
2022/04/03 06:15:18;;;;;;;4.00;1.20;;;22.10;35.90;;;;;;5026040;28;20025;-51
2022/04/03 06:17:43;;;;;;;2.22;1.00;;;22.20;35.80;;;;;;5027032;28;20056;-50
2022/04/03 06:20:10;;;;;;;2.38;1.00;;;22.30;35.80;;;;;;5026362;28;20025;-51
2022/04/03 06:22:35;;;;;;;1.75;0.90;;;22.30;35.60;;;;;;5026528;28;20557;-51
2022/04/03 06:25:01;;;;;;;2.15;0.82;;;22.40;35.60;;;;;;5025091;28;20039;-51
2022/04/03 06:27:27;;;;;;;1.85;0.90;;;22.40;35.40;;;;;;5025969;28;20068;-50
2022/04/03 06:29:53;;;;;;;2.17;1.30;;;22.50;35.40;;;;;;5026219;28;20484;-51
2022/04/03 06:32:19;;;;;;;1.95;0.93;;;22.60;35.30;;;;;;5024674;28;20076;-51
2022/04/03 06:34:45;;;;;;;1.83;0.80;;;22.60;35.20;;;;;;5025628;28;20030;-51
2022/04/03 06:37:10;;;;;;;1.65;0.80;;;22.70;35.10;;;;;;5026654;28;20025;-51
2022/04/03 06:39:36;;;;;;;2.17;1.02;;;22.70;35.00;;;;;;5026415;28;20017;-51
2022/04/03 06:42:03;;;;;;;1.70;0.90;;;22.80;34.90;;;;;;5025618;28;20108;-51
2022/04/03 06:44:30;;;;;;;1.85;0.80;;;22.80;34.80;;;;;;5026525;28;20082;-52
2022/04/03 06:46:56;;;;;;;2.05;0.98;;;22.90;34.90;;;;;;5026041;28;20040;-51
2022/04/03 06:49:22;;;;;;;1.63;0.85;;;22.90;34.80;;;;;;5026205;28;20532;-50
2022/04/03 06:51:47;;;;;;;1.77;0.80;;;23.00;34.70;;;;;;5025219;28;20025;-51
2022/04/03 06:54:13;;;;;;;2.88;0.98;;;23.00;34.70;;;;;;5025757;28;20534;-52
2022/04/03 06:56:39;;;;;;;1.83;1.00;;;23.00;34.60;;;;;;5025669;28;20067;-51
2022/04/03 06:59:04;;;;;;;2.28;1.00;;;23.10;34.70;;;;;;5025218;28;20037;-52
2022/04/03 07:01:30;;;;;;;2.10;0.80;;;23.10;34.70;;;;;;5025570;28;20541;-52
2022/04/03 07:03:56;;;;;;;2.63;0.90;;;23.20;34.60;;;;;;5025700;28;20057;-51
2022/04/03 07:06:21;;;;;;;1.88;0.80;;;23.20;34.50;;;;;;5025471;28;20163;-51
2022/04/03 07:08:48;;;;;;;2.15;1.02;;;23.30;34.40;;;;;;5025178;28;20025;-51
2022/04/03 07:11:15;;;;;;;2.55;1.13;;;23.20;34.30;;;;;;5024502;28;20112;-51
2022/04/03 07:13:41;;;;;;;2.80;1.08;;;23.30;34.30;;;;;;5025545;28;20033;-51
2022/04/03 07:16:06;;;;;;;2.05;1.00;;;23.30;34.30;;;;;;5025475;28;20033;-51
2022/04/03 07:18:35;;;;;;;2.22;0.98;;;23.30;34.30;;;;;;5026044;28;20033;-50
2022/04/03 07:21:01;;;;;;;1.95;0.85;;;23.30;34.30;;;;;;5024392;28;20026;-52
2022/04/03 07:23:27;;;;;;;2.33;1.08;;;23.40;34.30;;;;;;5023875;28;20036;-51
2022/04/03 07:25:52;;;;;;;2.35;1.08;;;23.40;34.30;;;;;;5025474;28;20029;-51
2022/04/03 07:28:18;;;;;;;1.80;0.82;;;23.40;34.20;;;;;;5024636;28;20092;-52
2022/04/03 07:30:44;;;;;;;2.97;1.20;;;23.40;34.20;;;;;;5023326;28;20382;-52
2022/04/03 07:33:09;;;;;;;1.70;0.93;;;23.40;34.20;;;;;;5024272;28;20057;-52
2022/04/03 07:35:37;;;;;;;1.95;1.00;;;23.40;34.20;;;;;;5024451;28;20037;-52
2022/04/03 07:38:03;;;;;;;1.98;1.02;;;23.40;34.20;;;;;;5024104;28;20048;-52
2022/04/03 07:40:29;;;;;;;2.15;0.80;;;23.40;34.10;;;;;;5023853;28;20534;-52
2022/04/03 07:42:56;;;;;;;4.70;1.15;;;23.50;34.20;;;;;;5023750;28;20223;-52
2022/04/03 07:45:22;;;;;;;1.90;0.90;;;23.40;34.20;;;;;;5023522;28;20587;-51
2022/04/03 07:47:50;;;;;;;2.13;1.00;;;23.50;34.20;;;;;;5021885;28;20040;-51
2022/04/03 07:50:18;;;;;;;3.35;1.10;;;23.50;34.30;;;;;;5023898;28;20029;-52
2022/04/03 07:52:45;;;;;;;2.85;1.10;;;23.50;34.40;;;;;;5021703;28;20041;-52
2022/04/03 07:55:12;;;;;;;3.92;1.15;;;23.50;34.50;;;;;;5021399;28;20029;-52
2022/04/03 07:57:39;;;;;;;4.05;1.13;;;23.50;34.60;;;;;;5019632;28;20557;-53
2022/04/03 08:00:11;;;;;;;3.45;1.00;;;23.50;34.80;;;;;;5036853;28;20558;-52
2022/04/03 08:02:37;;;;;;;4.70;1.55;;;23.50;34.90;;;;;;5021759;28;20484;-52
2022/04/03 08:05:05;;;;;;;3.08;1.15;;;23.50;34.90;;;;;;5020812;28;20021;-51
2022/04/03 08:07:48;;;;;;;6.43;1.80;;;23.50;35.10;;;;;;5016507;28;20117;-51
2022/04/03 08:10:19;;;;;;;4.72;1.20;;;23.60;35.10;;;;;;5009990;28;20029;-51
2022/04/03 08:12:47;;;;;;;3.42;1.25;;;23.50;35.10;;;;;;5023340;28;20084;-52
2022/04/03 08:15:14;;;;;;;2.42;1.08;;;23.50;35.10;;;;;;5023456;28;20116;-51
2022/04/03 08:17:40;;;;;;;4.63;1.50;;;23.60;35.00;;;;;;5023924;28;20112;-53
2022/04/03 08:20:18;;;;;;;4.72;1.70;;;23.60;35.00;;;;;;5021929;28;20033;-51
2022/04/03 08:22:45;;;;;;;4.70;1.20;;;23.60;35.00;;;;;;5022683;28;20417;-51
2022/04/03 08:25:15;;;;;;;4.68;1.30;;;23.60;35.60;;;;;;5023865;28;20700;-52
2022/04/03 08:27:49;;;;;;;3.95;1.08;;;23.70;35.00;;;;;;5023355;28;20627;-51
2022/04/03 08:30:22;;;;;;;3.45;1.20;;;23.60;34.80;;;;;;5023671;28;20029;-51
2022/04/03 08:32:48;;;;;;;3.10;1.08;;;23.60;34.70;;;;;;5022493;28;20025;-52
2022/04/03 08:35:15;;;;;;;2.78;1.30;;;23.60;34.60;;;;;;5023945;28;20037;-51
2022/04/03 08:37:42;;;;;;;3.88;1.40;;;23.60;34.60;;;;;;5023825;28;20560;-51
2022/04/03 08:40:09;;;;;;;2.33;1.10;;;23.60;34.50;;;;;;5023934;28;20048;-51
2022/04/03 08:42:36;;;;;;;4.88;1.60;;;23.60;34.50;;;;;;5022925;28;20060;-51
2022/04/03 08:45:03;;;;;;;3.60;1.38;;;23.60;34.50;;;;;;5023315;28;20528;-51
2022/04/03 08:47:30;;;;;;;2.13;1.10;;;23.60;34.50;;;;;;5018011;28;20033;-51
2022/04/03 08:50:01;;;;;;;3.92;1.42;;;23.60;34.50;;;;;;5023326;28;20034;-51
2022/04/03 08:52:27;;;;;;;3.38;1.38;;;23.60;34.70;;;;;;5022982;28;20505;-51
2022/04/03 08:54:53;;;;;;;3.38;1.50;;;23.60;34.90;;;;;;5023018;28;20056;-51
2022/04/03 08:57:20;;;;;;;2.72;1.15;;;23.60;34.80;;;;;;5023861;28;20026;-51
2022/04/03 08:59:49;;;;;;;3.28;1.50;;;23.60;34.80;;;;;;5022869;28;20038;-51
2022/04/03 09:02:15;;;;;;;4.32;1.80;;;23.60;34.90;;;;;;5023756;28;20555;-52
2022/04/03 09:04:41;;;;;;;4.70;1.50;;;23.60;34.90;;;;;;5023628;28;20037;-51
2022/04/03 09:07:06;;;;;;;2.95;1.25;;;23.50;34.90;;;;;;5023446;28;20246;-51
2022/04/03 09:09:32;;;;;;;3.85;1.70;;;23.50;34.90;;;;;;5023953;28;20041;-52
2022/04/03 09:12:09;;;;;;;2.85;1.30;;;23.50;34.90;;;;;;5023212;28;20041;-51
2022/04/03 09:14:43;;;;;;;3.63;1.27;;;23.50;34.80;;;;;;5021751;28;20033;-51
2022/04/03 09:17:08;;;;;;;3.60;1.27;;;23.50;34.80;;;;;;5023310;28;20045;-51
2022/04/03 09:19:34;;;;;;;3.13;1.30;;;23.50;34.90;;;;;;5022559;28;20056;-51
2022/04/03 09:22:01;;;;;;;3.30;1.42;;;23.50;34.80;;;;;;5023473;28;20025;-51
2022/04/03 09:24:28;;;;;;;2.92;1.40;;;23.40;34.80;;;;;;5022360;28;20036;-52
2022/04/03 09:27:02;;;;;;;3.08;1.20;;;23.50;34.80;;;;;;5020363;28;20041;-53
2022/04/03 09:29:27;;;;;;;2.65;1.33;;;23.40;34.80;;;;;;5000616;28;20033;-51
2022/04/03 09:32:02;;;;;;;2.58;1.20;;;23.40;34.80;;;;;;5013885;28;20068;-53
2022/04/03 09:34:29;;;;;;;3.05;1.10;;;23.40;34.80;;;;;;5018657;28;20021;-52
2022/04/03 09:36:59;;;;;;;2.90;1.30;;;23.40;34.80;;;;;;5020909;28;20029;-52
2022/04/03 09:39:28;;;;;;;3.20;1.45;;;23.40;34.60;;;;;;5020601;28;20036;-53
2022/04/03 09:42:12;;;;;;;3.72;1.55;;;23.40;34.50;;;;;;5015468;28;20053;-53
2022/04/03 09:44:41;;;;;;;3.33;1.42;;;23.30;34.60;;;;;;5016392;28;20033;-53
2022/04/03 09:47:30;;;;;;;2.45;1.20;;;23.30;34.80;;;;;;5020289;28;20033;-52
2022/04/03 09:49:57;;;;;;;2.90;1.35;;;23.40;34.90;;;;;;5020853;28;20017;-53
2022/04/03 09:52:41;;;;;;;3.55;1.55;;;23.30;35.00;;;;;;5014877;28;20033;-52
2022/04/03 09:55:19;;;;;;;3.05;1.48;;;23.30;35.10;;;;;;5014441;28;20108;-52
2022/04/03 09:57:46;;;;;;;4.57;1.90;;;23.30;35.10;;;;;;5017869;28;20030;-52
2022/04/03 10:00:14;;;;;;;3.75;1.40;;;23.30;35.20;;;;;;5021791;28;20029;-53
2022/04/03 10:02:46;;;;;;;3.13;1.60;;;23.40;35.20;;;;;;5014271;28;20109;-52
2022/04/03 10:05:13;;;;;;;3.22;1.63;;;23.30;35.30;;;;;;5010151;28;20098;-51
2022/04/03 10:07:41;;;;;;;3.67;1.63;;;23.30;35.20;;;;;;5016450;28;20678;-52
2022/04/03 10:10:07;;;;;;;3.60;1.70;;;23.30;35.30;;;;;;5016746;28;20029;-52
2022/04/03 10:12:34;;;;;;;3.58;1.58;;;23.30;35.30;;;;;;5019183;28;20040;-51
2022/04/03 10:15:03;;;;;;;3.53;1.67;;;23.40;35.20;;;;;;5011228;28;20026;-52
2022/04/03 10:17:29;;;;;;;2.83;1.23;;;23.40;35.20;;;;;;5013896;28;20034;-52
2022/04/03 10:19:55;;;;;;;2.67;1.25;;;23.40;35.20;;;;;;5006171;28;20458;-52
2022/04/03 10:22:33;;;;;;;2.90;1.40;;;23.40;35.20;;;;;;5013969;28;20026;-53
2022/04/03 10:25:04;;;;;;;2.92;1.45;;;23.40;35.20;;;;;;5013823;28;20037;-52
2022/04/03 10:27:35;;;;;;;2.78;1.20;;;23.40;35.10;;;;;;5020599;28;20640;-51
2022/04/03 10:30:00;;;;;;;4.63;1.60;;;23.40;35.00;;;;;;5019925;28;20025;-52
2022/04/03 10:32:29;;;;;;;3.08;1.35;;;23.40;35.70;;;;;;5014158;28;20057;-52
2022/04/03 10:35:11;;;;;;;3.28;1.52;;;23.40;35.10;;;;;;5009968;28;20033;-53
2022/04/03 10:37:40;;;;;;;2.45;1.13;;;23.40;35.20;;;;;;5019090;28;20555;-52
2022/04/03 10:40:17;;;;;;;3.17;1.45;;;23.40;35.30;;;;;;5019670;28;20028;-53
2022/04/03 10:42:53;;;;;;;4.57;1.50;;;23.40;35.40;;;;;;5015926;28;20030;-52
2022/04/03 10:45:27;;;;;;;4.25;1.45;;;23.40;35.60;;;;;;5019401;28;20115;-52
2022/04/03 10:48:21;;;;;;;2.55;1.15;;;23.40;35.60;;;;;;5016406;28;20040;-52
2022/04/03 10:51:05;;;;;;;2.83;1.23;;;23.40;35.70;;;;;;5013965;28;20428;-51
2022/04/03 10:53:37;;;;;;;3.70;1.73;;;23.40;35.80;;;;;;5016198;28;20076;-52
2022/04/03 10:56:09;;;;;;;5.93;2.10;;;23.40;35.80;;;;;;5017644;28;20043;-53
2022/04/03 10:58:43;;;;;;;5.18;2.60;;;23.40;35.60;;;;;;5015955;28;20029;-52
2022/04/03 11:01:31;;;;;;;5.25;2.50;;;23.40;35.40;;;;;;5015721;28;20021;-52
2022/04/03 11:03:58;;;;;;;5.32;2.58;;;23.40;35.10;;;;;;5016429;28;20040;-52
2022/04/03 11:06:30;;;;;;;7.95;3.80;;;23.40;35.00;;;;;;5014932;28;20025;-52
2022/04/03 11:09:06;;;;;;;7.00;4.15;;;23.40;34.80;;;;;;5018571;28;20119;-52
2022/04/03 11:11:41;;;;;;;7.50;4.13;;;23.40;34.80;;;;;;5015931;28;20025;-51
2022/04/03 11:14:12;;;;;;;8.55;4.47;;;23.40;34.50;;;;;;5015171;28;20032;-51
2022/04/03 11:16:55;;;;;;;6.57;3.53;;;23.40;34.40;;;;;;5015007;28;20025;-52
2022/04/03 11:19:35;;;;;;;6.07;3.55;;;23.40;34.30;;;;;;5017256;28;20021;-52
2022/04/03 11:22:01;;;;;;;5.40;3.42;;;23.40;34.10;;;;;;5010921;28;20195;-53
2022/04/03 11:24:28;;;;;;;7.57;3.80;;;23.50;34.00;;;;;;5011659;28;20026;-52
2022/04/03 11:26:54;;;;;;;7.35;3.42;;;23.40;33.80;;;;;;5018203;28;20540;-53
2022/04/03 11:29:19;;;;;;;7.55;3.70;;;23.40;33.70;;;;;;5018849;28;20022;-52
2022/04/03 11:31:46;;;;;;;5.43;3.10;;;23.40;33.60;;;;;;5019445;28;20091;-53
2022/04/03 11:34:12;;;;;;;5.88;3.30;;;23.40;33.50;;;;;;5015704;28;20030;-52
2022/04/03 11:36:38;;;;;;;6.75;3.28;;;23.50;33.70;;;;;;5018205;28;20493;-53
2022/04/03 11:39:09;;;;;;;5.00;3.33;;;23.50;33.40;;;;;;5019345;28;20040;-53
2022/04/03 11:41:36;;;;;;;4.40;2.47;;;23.50;33.30;;;;;;5016036;28;20033;-52
2022/04/03 11:44:13;;;;;;;6.68;3.45;;;23.50;33.30;;;;;;5016118;28;20104;-52
2022/04/03 11:46:42;;;;;;;6.47;3.35;;;23.50;33.20;;;;;;5004038;28;20029;-52
2022/04/03 11:49:16;;;;;;;6.30;3.85;;;23.40;33.00;;;;;;5009321;28;20120;-53
2022/04/03 11:51:43;;;;;;;6.15;3.63;;;23.50;32.90;;;;;;5009702;28;20065;-52
2022/04/03 11:54:09;;;;;;;6.80;4.05;;;23.50;32.90;;;;;;5007957;28;20117;-52
2022/04/03 11:56:37;;;;;;;5.82;3.65;;;23.50;32.90;;;;;;5017344;28;20029;-53
2022/04/03 11:59:09;;;;;;;4.93;3.30;;;23.50;33.20;;;;;;5003440;28;20474;-53
2022/04/03 12:01:42;;;;;;;5.88;3.53;;;23.50;33.50;;;;;;5007185;28;20036;-52
2022/04/03 12:04:13;;;;;;;4.35;2.75;;;23.50;33.40;;;;;;5007164;28;20089;-53
2022/04/03 12:06:41;;;;;;;5.95;3.65;;;23.50;33.30;;;;;;5005427;28;20493;-53
2022/04/03 12:09:14;;;;;;;5.78;3.35;;;23.50;33.20;;;;;;5010878;28;20025;-52
2022/04/03 12:11:45;;;;;;;5.80;3.03;;;23.50;33.20;;;;;;5010016;28;20028;-52
2022/04/03 12:14:20;;;;;;;5.68;3.38;;;23.60;33.20;;;;;;5017667;28;20040;-52
2022/04/03 12:16:46;;;;;;;6.25;3.25;;;23.50;33.10;;;;;;5017010;28;20124;-52
2022/04/03 12:19:17;;;;;;;5.03;2.85;;;23.50;33.20;;;;;;5010716;28;20042;-52
2022/04/03 12:22:04;;;;;;;5.47;3.08;;;23.60;33.20;;;;;;5007177;28;20442;-52
2022/04/03 12:24:32;;;;;;;5.32;3.33;;;23.60;33.30;;;;;;5007643;28;20517;-53
2022/04/03 12:27:12;;;;;;;4.95;2.78;;;23.60;33.10;;;;;;5019056;28;20037;-53
2022/04/03 12:29:39;;;;;;;5.28;2.80;;;23.60;32.90;;;;;;5017568;28;20501;-50
2022/04/03 12:32:07;;;;;;;5.95;3.08;;;23.60;33.00;;;;;;5018560;28;20512;-52
2022/04/03 12:34:35;;;;;;;4.97;3.17;;;23.60;33.70;;;;;;5016367;28;20022;-51
2022/04/03 12:37:03;;;;;;;4.72;2.80;;;23.60;33.10;;;;;;5012651;28;20084;-51
2022/04/03 12:39:35;;;;;;;4.30;2.50;;;23.60;33.30;;;;;;5019543;28;20025;-50
2022/04/03 12:42:16;;;;;;;4.43;2.70;;;23.70;33.50;;;;;;5019110;28;20449;-49
2022/04/03 12:45:00;;;;;;;5.25;2.67;;;23.60;33.50;;;;;;5013894;28;20666;-49
2022/04/03 12:47:42;;;;;;;6.25;2.90;;;23.70;33.60;;;;;;5017029;28;20040;-49
2022/04/03 12:50:19;;;;;;;5.97;3.08;;;23.70;33.60;;;;;;5012624;28;20026;-50
2022/04/03 12:52:48;;;;;;;5.55;3.38;;;23.70;33.50;;;;;;5016731;28;20829;-50
2022/04/03 13:00:42;;;;;;;6.55;3.90;;;23.70;33.80;;;;;;5010594;28;20218;-49